Bennet, NE (68317)

1:35 AM CDT on May 05, 2015 (GMT -0500)
Cheney Ridge | | Change Station
CLOSE
Current Station
Personal Weather Station
Location: Lincoln, NE
Elevation: 1371 ft
Nearby Weather Stations

Elev 1371 ft 40.75 °N, 96.61 °W | Updated 1 second ago

Overcast
Overcast
60.1 °F
Feels Like 60.1 °F
N
0.0
Wind Variable Wind from SSW
Gusts 0.4 mph

Today
High -- | Low -- °F
--% Chance of Precip.
Yesterday
High -- | Low -- °F
Precip. -- in
6:20 AM 8:26 PM
Full, 99% visible
Pressure 30.07 in
Visibility 3.0 miles
Clouds Scattered Clouds 800 ft
Mostly Cloudy 4100 ft
Overcast 8000 ft
Dew Point 57 °F
Humidity 88%
Rainfall 0.00 in
Snow Depth Not available.
UV 0 out of 12
Pollen 4.30 out of 12
Air Quality Not available.
Flu Activity Local Activity
SPECI KLNK 050620Z AUTO 18007KT 3SM BR SCT008 BKN041 OVC080 16/15 A3007 RMK AO2 T01610150

More Conditions Fewer Conditions

Pressure 30.07 in
Visibility 3.0 miles
Clouds Scattered Clouds 800 ft
Mostly Cloudy 4100 ft
Overcast 8000 ft
Dew Point 57 °F
Humidity 88%
Rainfall 0.00 in
Snow Depth Not available.
UV 0 out of 12
Pollen 4.30 out of 12
Air Quality Not available.
Flu Activity Local Activity
SPECI KLNK 050620Z AUTO 18007KT 3SM BR SCT008 BKN041 OVC080 16/15 A3007 RMK AO2 T01610150

More Conditions Fewer Conditions

Nepal has a long way to go to dig out and rebuild from a devastating earthquake. We have teamed up with several charities and organizations to make contributing to the relief effort as easy as possible.
How you can help: Portlight Strategies | Red Cross

10-Day Weather Forecast

Almanac

Astronomy

May. 05, 2015 Rise Set
Actual Time
Civil Twilight
Nautical Twilight
Astronomical Twilight
Moon
Length of Visible Light
Length of Day
Tomorrow will be .
, % of the Moon is Illuminated

Today's Extremes

State Highs State Lows

Community

WunderPhotos

Upload Photos

1,818,814 photos uploaded!

WunderBlogs® & News

Nearby

Air Quality

  Air Quality AQ Index Pollutant
Not available.

Snow Depth

Station Depth Elevation

Earthquake Activity

City Distance Mag. Time & Date
Minimum magnitude displayed is 2.5.

Coastal Water Temperatures

Place Temperature

Stations

Nearby Weather Stations

Station Location Temp. Windchill Dew Point Humidity Wind Precip. Elev Updated Type